Time;durP1;ratioP1;P1;durP2;ratioP2;P2;SDS_P1;SDS_P2;PMS_P1;PMS_P2;Temp;Humidity;BMP_temperature;BMP_pressure;BME280_temperature;BME280_humidity;BME280_pressure;Samples;Min_cycle;Max_cycle;Signal;HPM_P1;HPM_P2
2023/07/25 04:01:20;;;;;;;1999.90;999.90;;;;;;;;;;5714972;23;20279;-76
2023/07/25 04:04:06;;;;;;;1999.90;999.90;;;;;;;;;;4956788;29;20220;-78
2023/07/25 04:06:51;;;;;;;1999.90;999.90;;;;;;;;;;4956301;29;20219;-76
2023/07/25 04:09:35;;;;;;;1999.90;999.90;;;;;;;;;;4956653;29;20239;-76
2023/07/25 04:12:20;;;;;;;1999.90;999.90;;;;;;;;;;4956768;28;20234;-76
2023/07/25 04:15:06;;;;;;;1999.90;999.90;;;;;;;;;;4956719;29;20700;-76
2023/07/25 04:17:52;;;;;;;1999.90;999.90;;;;;;;;;;4956909;29;20211;-76
2023/07/25 04:20:37;;;;;;;1999.90;999.90;;;;;;;;;;4953538;28;20206;-73
2023/07/25 04:23:22;;;;;;;1999.90;999.90;;;;;;;;;;4954996;28;20286;-79
2023/07/25 04:26:08;;;;;;;1999.90;999.90;;;;;;;;;;4955582;28;20722;-76
2023/07/25 04:28:52;;;;;;;1999.90;999.90;;;;;;;;;;4955302;28;20228;-80
2023/07/25 04:31:37;;;;;;;1999.90;999.90;;;;;;;;;;4955494;28;20238;-77
2023/07/25 04:34:23;;;;;;;1999.90;999.90;;;;;;;;;;4952187;28;20540;-77
2023/07/25 04:37:08;;;;;;;1999.90;999.90;;;;;;;;;;4955783;28;20228;-75
2023/07/25 04:39:53;;;;;;;1999.90;999.90;;;;;;;;;;4960619;28;20252;-75
2023/07/25 04:42:38;;;;;;;1999.90;999.90;;;;;;;;;;4958440;28;20283;-74
2023/07/25 04:45:23;;;;;;;1999.90;999.90;;;;;;;;;;4955939;28;20231;-71
2023/07/25 04:48:08;;;;;;;1999.90;999.90;;;;;;;;;;4959362;28;20259;-71
2023/07/25 04:50:55;;;;;;;1999.90;999.90;;;;;;;;;;4955413;28;20266;-72
2023/07/25 04:53:40;;;;;;;1999.90;999.90;;;;;;;;;;4954207;28;20204;-72
2023/07/25 04:56:25;;;;;;;1999.90;999.90;;;;;;;;;;4959516;28;20284;-74
2023/07/25 04:59:10;;;;;;;1999.90;999.90;;;;;;;;;;4955565;28;20580;-74
2023/07/25 05:01:54;;;;;;;1999.90;999.90;;;;;;;;;;4955152;28;20814;-74
2023/07/25 05:04:39;;;;;;;1999.90;999.90;;;;;;;;;;4953599;28;20261;-74
2023/07/25 05:07:26;;;;;;;1999.90;999.90;;;;;;;;;;4955864;28;20279;-75
2023/07/25 05:10:11;;;;;;;1999.90;999.90;;;;;;;;;;4956265;28;20235;-74
2023/07/25 05:12:55;;;;;;;1999.90;999.90;;;;;;;;;;4955142;28;20307;-74
2023/07/25 05:15:40;;;;;;;1999.90;999.90;;;;;;;;;;4950566;28;20439;-74
2023/07/25 05:18:25;;;;;;;1999.90;999.90;;;;;;;;;;4952690;28;20676;-74
2023/07/25 05:21:10;;;;;;;1999.90;999.90;;;;;;;;;;4954394;28;20804;-72
2023/07/25 05:23:56;;;;;;;1999.90;999.90;;;;;;;;;;4955343;28;20228;-73
2023/07/25 05:26:41;;;;;;;1999.90;999.90;;;;;;;;;;4952244;28;20212;-74
2023/07/25 05:29:26;;;;;;;1999.90;999.90;;;;;;;;;;4953425;28;20603;-75
2023/07/25 05:32:11;;;;;;;1999.90;999.90;;;;;;;;;;4954195;28;20247;-75
2023/07/25 05:34:56;;;;;;;1999.90;999.90;;;;;;;;;;4953450;28;20405;-75
2023/07/25 05:37:42;;;;;;;1999.90;999.90;;;;;;;;;;4952353;28;20216;-74
2023/07/25 05:40:28;;;;;;;1999.90;999.90;;;;;;;;;;4954205;28;20213;-75
2023/07/25 05:43:15;;;;;;;1999.90;999.90;;;;;;;;;;4954130;28;20309;-75
2023/07/25 05:46:00;;;;;;;1999.90;999.90;;;;;;;;;;4954436;28;20261;-75
2023/07/25 05:48:44;;;;;;;1999.90;999.90;;;;;;;;;;4951273;28;20207;-75
2023/07/25 05:51:29;;;;;;;1999.90;999.90;;;;;;;;;;4952249;28;20232;-75
2023/07/25 05:54:15;;;;;;;1999.90;999.90;;;;;;;;;;4954310;28;20248;-72
2023/07/25 05:57:02;;;;;;;1999.90;999.90;;;;;;;;;;4954526;28;20219;-75
2023/07/25 05:59:47;;;;;;;1999.90;999.90;;;;;;;;;;4952411;28;20701;-73
2023/07/25 06:02:32;;;;;;;1999.90;999.90;;;;;;;;;;4953337;28;20240;-75
2023/07/25 06:05:17;;;;;;;1999.90;999.90;;;;;;;;;;4953848;28;20736;-75
2023/07/25 06:08:02;;;;;;;1999.90;999.90;;;;;;;;;;4957849;28;20216;-75
2023/07/25 06:10:47;;;;;;;1999.90;999.90;;;;;;;;;;4957181;28;20795;-74
2023/07/25 06:13:34;;;;;;;1999.90;999.90;;;;;;;;;;4950773;28;20580;-74
2023/07/25 06:16:19;;;;;;;1999.90;999.90;;;;;;;;;;4956712;28;20704;-75
2023/07/25 06:19:04;;;;;;;1999.90;999.90;;;;;;;;;;4953818;28;20578;-75
2023/07/25 06:21:49;;;;;;;1999.90;999.90;;;;;;;;;;4953613;28;20785;-76
2023/07/25 06:24:35;;;;;;;1999.90;999.90;;;;;;;;;;4951524;28;20801;-75
2023/07/25 06:27:20;;;;;;;1999.90;999.90;;;;;;;;;;4952663;28;20209;-75
2023/07/25 06:30:07;;;;;;;1999.90;999.90;;;;;;;;;;4953388;28;20228;-75
2023/07/25 06:32:52;;;;;;;1999.90;999.90;;;;;;;;;;4952630;28;20396;-75
2023/07/25 06:35:37;;;;;;;1999.90;999.90;;;;;;;;;;4950935;28;20332;-74
2023/07/25 06:38:22;;;;;;;1999.90;999.90;;;;;;;;;;4953753;28;20236;-75
2023/07/25 06:41:07;;;;;;;1999.90;999.90;;;;;;;;;;4955412;28;20224;-75
2023/07/25 06:43:52;;;;;;;1999.90;999.90;;;;;;;;;;4952612;28;20703;-75
2023/07/25 06:46:38;;;;;;;1999.90;999.90;;;;;;;;;;4958576;28;20321;-75
2023/07/25 06:49:23;;;;;;;1999.90;999.90;;;;;;;;;;4955574;28;20748;-75
2023/07/25 06:52:07;;;;;;;1999.90;999.90;;;;;;;;;;4952329;28;20236;-76
2023/07/25 06:54:52;;;;;;;1999.90;999.90;;;;;;;;;;4960714;28;20287;-76
2023/07/25 06:57:37;;;;;;;1999.90;999.90;;;;;;;;;;4961780;28;20212;-75
2023/07/25 07:00:22;;;;;;;1999.90;999.90;;;;;;;;;;4960214;28;20292;-75
2023/07/25 07:03:08;;;;;;;1999.90;999.90;;;;;;;;;;4964891;28;20211;-76
2023/07/25 07:05:54;;;;;;;1999.90;999.90;;;;;;;;;;4959135;28;20216;-75
2023/07/25 07:08:39;;;;;;;1999.90;999.90;;;;;;;;;;4957528;28;20219;-74
2023/07/25 07:11:24;;;;;;;1999.90;999.90;;;;;;;;;;4960663;28;20832;-75
2023/07/25 07:14:09;;;;;;;1999.90;999.90;;;;;;;;;;4954735;28;20717;-75
2023/07/25 07:16:53;;;;;;;1999.90;999.90;;;;;;;;;;4964468;28;20345;-75
2023/07/25 07:19:40;;;;;;;1999.90;999.90;;;;;;;;;;4960631;28;20217;-75
2023/07/25 07:22:25;;;;;;;1999.90;999.90;;;;;;;;;;4955991;28;20729;-75
2023/07/25 07:25:10;;;;;;;1999.90;999.90;;;;;;;;;;4957667;28;20217;-75
2023/07/25 07:27:55;;;;;;;1999.90;999.90;;;;;;;;;;4955922;28;20599;-75
2023/07/25 07:30:39;;;;;;;1999.90;999.90;;;;;;;;;;4958069;28;20936;-75
2023/07/25 07:33:24;;;;;;;1999.90;999.90;;;;;;;;;;4953473;28;20207;-75
2023/07/25 07:36:11;;;;;;;1999.90;999.90;;;;;;;;;;4965529;28;20212;-76
2023/07/25 07:38:56;;;;;;;1999.90;999.90;;;;;;;;;;4958204;28;20287;-76
2023/07/25 07:41:41;;;;;;;1999.90;999.90;;;;;;;;;;4958060;28;20230;-76
2023/07/25 07:44:26;;;;;;;1999.90;999.90;;;;;;;;;;4962087;28;20218;-76
2023/07/25 07:47:11;;;;;;;1999.90;999.90;;;;;;;;;;4969055;28;20236;-75
2023/07/25 07:49:56;;;;;;;1999.90;999.90;;;;;;;;;;4956506;28;20225;-75
2023/07/25 07:52:42;;;;;;;1999.90;999.90;;;;;;;;;;4957516;28;20236;-75
2023/07/25 07:55:28;;;;;;;1999.90;999.90;;;;;;;;;;4967972;28;20288;-74
2023/07/25 07:58:13;;;;;;;1999.90;999.90;;;;;;;;;;4965041;28;20756;-75
2023/07/25 08:00:58;;;;;;;1999.90;999.90;;;;;;;;;;4964141;28;20338;-75
2023/07/25 08:03:43;;;;;;;1999.90;999.90;;;;;;;;;;4957075;28;20220;-75
2023/07/25 08:06:29;;;;;;;1999.90;999.90;;;;;;;;;;4956108;28;20224;-74
2023/07/25 08:09:15;;;;;;;1999.90;999.90;;;;;;;;;;4956309;28;20279;-74
2023/07/25 08:12:03;;;;;;;1999.90;999.90;;;;;;;;;;4956851;28;20225;-75
2023/07/25 08:14:48;;;;;;;1999.90;999.90;;;;;;;;;;4964069;28;20221;-73
2023/07/25 08:17:32;;;;;;;1999.90;999.90;;;;;;;;;;4953835;28;20349;-75
2023/07/25 08:20:17;;;;;;;1999.90;999.90;;;;;;;;;;4957322;28;20320;-75
2023/07/25 08:23:02;;;;;;;1999.90;999.90;;;;;;;;;;4962043;28;20294;-75
2023/07/25 08:25:48;;;;;;;1999.90;999.90;;;;;;;;;;4965111;28;20216;-73
2023/07/25 08:28:34;;;;;;;1999.90;999.90;;;;;;;;;;4955735;28;20431;-74
2023/07/25 08:31:19;;;;;;;1999.90;999.90;;;;;;;;;;4960108;28;20244;-73
2023/07/25 08:34:04;;;;;;;1999.90;999.90;;;;;;;;;;4962953;28;20295;-75
2023/07/25 08:36:49;;;;;;;1999.90;999.90;;;;;;;;;;4960643;28;20320;-75
2023/07/25 08:39:34;;;;;;;1999.90;999.90;;;;;;;;;;4964401;28;20252;-74
2023/07/25 08:42:22;;;;;;;1999.90;999.90;;;;;;;;;;4957622;28;20229;-74
2023/07/25 08:45:07;;;;;;;1999.90;999.90;;;;;;;;;;4956862;28;20698;-75
2023/07/25 08:47:53;;;;;;;1999.90;999.90;;;;;;;;;;4962319;28;20216;-74
2023/07/25 08:50:41;;;;;;;1999.90;999.90;;;;;;;;;;4965370;28;20314;-74
2023/07/25 08:53:28;;;;;;;1999.90;999.90;;;;;;;;;;4965883;28;20208;-73
2023/07/25 08:56:14;;;;;;;1999.90;999.90;;;;;;;;;;4963706;28;20226;-75
2023/07/25 08:59:01;;;;;;;1999.90;999.90;;;;;;;;;;4967120;28;20334;-75
2023/07/25 09:01:46;;;;;;;1999.90;999.90;;;;;;;;;;4958699;28;20245;-75
2023/07/25 09:04:32;;;;;;;1999.90;999.90;;;;;;;;;;4954720;28;20268;-74
2023/07/25 09:07:17;;;;;;;1999.90;999.90;;;;;;;;;;4963188;28;20932;-74
2023/07/25 09:10:02;;;;;;;1999.90;999.90;;;;;;;;;;4963889;28;20223;-73
2023/07/25 09:12:47;;;;;;;1999.90;999.90;;;;;;;;;;4953305;28;20632;-73
2023/07/25 09:15:33;;;;;;;1999.90;999.90;;;;;;;;;;4957998;28;20742;-74
2023/07/25 09:18:19;;;;;;;1999.90;999.90;;;;;;;;;;4955391;28;20286;-74
2023/07/25 09:21:04;;;;;;;1999.90;999.90;;;;;;;;;;4949931;28;20238;-73
2023/07/25 09:23:51;;;;;;;1999.90;999.90;;;;;;;;;;4957169;28;20217;-76
2023/07/25 09:26:38;;;;;;;1999.90;999.90;;;;;;;;;;4958824;28;20420;-76
2023/07/25 09:29:28;;;;;;;1999.90;999.90;;;;;;;;;;4958869;28;20232;-77
2023/07/25 09:32:21;;;;;;;1999.90;999.90;;;;;;;;;;4950375;28;20234;-77
2023/07/25 09:35:06;;;;;;;1999.90;999.90;;;;;;;;;;4962648;28;20692;-78
2023/07/25 09:37:53;;;;;;;1999.90;999.90;;;;;;;;;;4959035;28;20208;-78
2023/07/25 09:40:38;;;;;;;1999.90;999.90;;;;;;;;;;4957034;28;20215;-76
2023/07/25 09:43:23;;;;;;;1999.90;999.90;;;;;;;;;;4961030;28;20222;-76
2023/07/25 09:46:09;;;;;;;1999.90;999.90;;;;;;;;;;4957993;28;20213;-78
2023/07/25 09:48:56;;;;;;;1999.90;999.90;;;;;;;;;;4957975;28;20608;-78
2023/07/25 09:51:56;;;;;;;1999.90;999.90;;;;;;;;;;4961184;28;20230;-76
2023/07/25 09:54:42;;;;;;;1999.90;999.90;;;;;;;;;;4961972;28;20203;-77
2023/07/25 09:57:27;;;;;;;1999.90;999.90;;;;;;;;;;4957353;28;20203;-77
2023/07/25 10:00:12;;;;;;;1999.90;999.90;;;;;;;;;;4954426;28;20697;-76
2023/07/25 10:02:58;;;;;;;1999.90;999.90;;;;;;;;;;4952613;28;20219;-78
2023/07/25 10:05:44;;;;;;;1999.90;999.90;;;;;;;;;;4959057;28;20614;-77
2023/07/25 10:08:29;;;;;;;1999.90;999.90;;;;;;;;;;4960459;28;20283;-78
2023/07/25 10:11:14;;;;;;;1999.90;999.90;;;;;;;;;;4953639;28;20737;-77
2023/07/25 10:13:59;;;;;;;1999.90;999.90;;;;;;;;;;4949457;28;20214;-75
2023/07/25 10:16:44;;;;;;;1999.90;999.90;;;;;;;;;;4958331;28;20230;-78
2023/07/25 10:19:44;;;;;;;1999.90;999.90;;;;;;;;;;4959791;28;20215;-78
2023/07/25 10:22:34;;;;;;;1999.90;999.90;;;;;;;;;;4963654;28;20308;-78
2023/07/25 10:25:20;;;;;;;1999.90;999.90;;;;;;;;;;4953410;28;20495;-77
2023/07/25 10:28:05;;;;;;;1999.90;999.90;;;;;;;;;;4962515;28;20211;-79
2023/07/25 10:30:52;;;;;;;1999.90;999.90;;;;;;;;;;4966726;28;20318;-76
2023/07/25 10:33:38;;;;;;;1999.90;999.90;;;;;;;;;;4961834;28;20303;-78
2023/07/25 10:36:24;;;;;;;1999.90;999.90;;;;;;;;;;4954063;28;20223;-78
2023/07/25 10:39:24;;;;;;;1999.90;999.90;;;;;;;;;;4956735;28;20793;-78
2023/07/25 10:42:14;;;;;;;1999.90;999.90;;;;;;;;;;4952918;28;20345;-78
2023/07/25 10:44:59;;;;;;;1999.90;999.90;;;;;;;;;;4949529;28;20755;-77
2023/07/25 10:47:44;;;;;;;1999.90;999.90;;;;;;;;;;4959638;28;20228;-75
2023/07/25 10:50:50;;;;;;;1999.90;999.90;;;;;;;;;;4958728;28;20717;-75
2023/07/25 10:53:36;;;;;;;1999.90;999.90;;;;;;;;;;4959390;28;20214;-77
2023/07/25 10:56:22;;;;;;;1999.90;999.90;;;;;;;;;;4956514;28;20279;-78
2023/07/25 10:59:08;;;;;;;1999.90;999.90;;;;;;;;;;4949508;28;20223;-77
2023/07/25 11:01:53;;;;;;;1999.90;999.90;;;;;;;;;;4952793;28;20552;-78
2023/07/25 11:04:38;;;;;;;1999.90;999.90;;;;;;;;;;4961757;28;20212;-77
2023/07/25 11:07:23;;;;;;;1999.90;999.90;;;;;;;;;;4953617;29;20299;-79
2023/07/25 11:10:08;;;;;;;1999.90;999.90;;;;;;;;;;4952997;29;20209;-77
2023/07/25 11:12:55;;;;;;;1999.90;999.90;;;;;;;;;;4953958;29;20210;-77
2023/07/25 11:15:40;;;;;;;1999.90;999.90;;;;;;;;;;4953754;29;20585;-78
2023/07/25 11:18:25;;;;;;;1999.90;999.90;;;;;;;;;;4934765;29;20221;-78
2023/07/25 11:21:10;;;;;;;1999.90;999.90;;;;;;;;;;4935469;29;20422;-79
2023/07/25 11:24:03;;;;;;;1999.90;999.90;;;;;;;;;;4952653;29;20213;-79
2023/07/25 11:26:48;;;;;;;1999.90;999.90;;;;;;;;;;4954329;29;20258;-78
2023/07/25 11:29:34;;;;;;;1999.90;999.90;;;;;;;;;;4935537;29;20222;-77
2023/07/25 11:32:19;;;;;;;1999.90;999.90;;;;;;;;;;4934546;29;20319;-79
2023/07/25 11:35:04;;;;;;;1999.90;999.90;;;;;;;;;;4954464;28;20269;-80
2023/07/25 11:37:50;;;;;;;1999.90;999.90;;;;;;;;;;4952922;28;20209;-78
2023/07/25 11:40:35;;;;;;;1999.90;999.90;;;;;;;;;;4944207;29;20292;-79
2023/07/25 11:43:20;;;;;;;1999.90;999.90;;;;;;;;;;4954068;29;20295;-77
2023/07/25 11:46:07;;;;;;;1999.90;999.90;;;;;;;;;;4954796;29;20208;-79
2023/07/25 11:48:52;;;;;;;1999.90;999.90;;;;;;;;;;4955037;28;20224;-78
2023/07/25 11:51:38;;;;;;;1999.90;999.90;;;;;;;;;;4961978;28;20657;-79
2023/07/25 11:54:23;;;;;;;1999.90;999.90;;;;;;;;;;4964397;28;20292;-79
2023/07/25 11:57:09;;;;;;;1999.90;999.90;;;;;;;;;;4955470;28;20344;-79
2023/07/25 11:59:55;;;;;;;1999.90;999.90;;;;;;;;;;4953041;28;20259;-77
2023/07/25 12:02:42;;;;;;;1999.90;999.90;;;;;;;;;;4958100;28;20232;-78
2023/07/25 12:05:28;;;;;;;1999.90;999.90;;;;;;;;;;4956175;28;20700;-77
2023/07/25 12:08:13;;;;;;;1999.90;999.90;;;;;;;;;;4959200;28;20261;-77
2023/07/25 12:11:00;;;;;;;1999.90;999.90;;;;;;;;;;4952076;28;20228;-77
2023/07/25 12:13:47;;;;;;;1999.90;999.90;;;;;;;;;;4965793;28;20808;-78
2023/07/25 12:16:34;;;;;;;1999.90;999.90;;;;;;;;;;4945399;29;20573;-75
2023/07/25 12:19:21;;;;;;;1999.90;999.90;;;;;;;;;;4958102;28;20212;-78
2023/07/25 12:22:07;;;;;;;1999.90;999.90;;;;;;;;;;4952657;28;20221;-77
2023/07/25 12:24:52;;;;;;;1999.90;999.90;;;;;;;;;;4967776;28;20214;-76
2023/07/25 12:27:44;;;;;;;1999.90;999.90;;;;;;;;;;4962788;28;20685;-75
2023/07/25 12:30:29;;;;;;;1999.90;999.90;;;;;;;;;;4958218;28;20219;-77
2023/07/25 12:33:14;;;;;;;1999.90;999.90;;;;;;;;;;4964327;28;20207;-79
2023/07/25 12:36:01;;;;;;;1999.90;999.90;;;;;;;;;;4949484;28;20219;-76
2023/07/25 12:38:46;;;;;;;1999.90;999.90;;;;;;;;;;4955588;28;20264;-77
2023/07/25 12:41:31;;;;;;;1999.90;999.90;;;;;;;;;;4953144;28;20319;-78
2023/07/25 12:44:17;;;;;;;1999.90;999.90;;;;;;;;;;4952775;28;20215;-77
2023/07/25 12:47:04;;;;;;;1999.90;999.90;;;;;;;;;;4953798;28;20214;-77
2023/07/25 12:49:49;;;;;;;1999.90;999.90;;;;;;;;;;4954270;28;20230;-77
2023/07/25 12:52:35;;;;;;;1999.90;999.90;;;;;;;;;;4954705;28;20242;-77
2023/07/25 12:55:21;;;;;;;1999.90;999.90;;;;;;;;;;4948977;28;20637;-77
2023/07/25 12:58:07;;;;;;;1999.90;999.90;;;;;;;;;;4953739;28;20412;-74
2023/07/25 13:00:52;;;;;;;1999.90;999.90;;;;;;;;;;4951349;28;20321;-77
2023/07/25 13:03:40;;;;;;;1999.90;999.90;;;;;;;;;;4951201;28;20289;-76
2023/07/25 13:06:26;;;;;;;1999.90;999.90;;;;;;;;;;4947153;28;20218;-77
2023/07/25 13:09:12;;;;;;;1999.90;999.90;;;;;;;;;;4951195;28;20344;-78
2023/07/25 13:11:57;;;;;;;1999.90;999.90;;;;;;;;;;4952688;28;20278;-77
2023/07/25 13:14:42;;;;;;;1999.90;999.90;;;;;;;;;;4952180;28;20215;-78
2023/07/25 13:17:27;;;;;;;1999.90;999.90;;;;;;;;;;4954845;28;20290;-76
2023/07/25 13:20:12;;;;;;;1999.90;999.90;;;;;;;;;;4947508;28;20439;-76
2023/07/25 13:22:57;;;;;;;1999.90;999.90;;;;;;;;;;4954514;28;20294;-76
2023/07/25 13:25:45;;;;;;;1999.90;999.90;;;;;;;;;;4950944;28;20223;-77
2023/07/25 13:28:30;;;;;;;1999.90;999.90;;;;;;;;;;4952806;28;20962;-76
2023/07/25 13:31:15;;;;;;;1999.90;999.90;;;;;;;;;;4951771;28;20271;-76
2023/07/25 13:34:00;;;;;;;1999.90;999.90;;;;;;;;;;4952751;28;20204;-76
2023/07/25 13:36:45;;;;;;;1999.90;999.90;;;;;;;;;;4953820;28;20213;-77
2023/07/25 13:39:30;;;;;;;1999.90;999.90;;;;;;;;;;4949423;28;20296;-79
2023/07/25 13:42:17;;;;;;;1999.90;999.90;;;;;;;;;;4952595;28;20232;-79
2023/07/25 13:45:01;;;;;;;1999.90;999.90;;;;;;;;;;4956718;28;20606;-77
2023/07/25 13:47:47;;;;;;;1999.90;999.90;;;;;;;;;;4957108;28;20723;-78
2023/07/25 13:50:31;;;;;;;1999.90;999.90;;;;;;;;;;4953446;28;20237;-78
2023/07/25 13:53:16;;;;;;;1999.90;999.90;;;;;;;;;;4955693;28;20232;-78
2023/07/25 13:56:01;;;;;;;1999.90;999.90;;;;;;;;;;4951651;28;20436;-75
2023/07/25 13:58:47;;;;;;;1999.90;999.90;;;;;;;;;;4950798;28;20220;-77
2023/07/25 14:01:32;;;;;;;1999.90;999.90;;;;;;;;;;4950402;28;20254;-77
2023/07/25 14:04:19;;;;;;;1999.90;999.90;;;;;;;;;;4946288;28;20215;-78
2023/07/25 14:07:04;;;;;;;1999.90;999.90;;;;;;;;;;4956957;28;20343;-77
2023/07/25 14:09:50;;;;;;;1999.90;999.90;;;;;;;;;;4954728;28;20206;-78
2023/07/25 14:12:35;;;;;;;1999.90;999.90;;;;;;;;;;4956953;28;20359;-76
2023/07/25 14:15:26;;;;;;;1999.90;999.90;;;;;;;;;;4953880;28;20212;-78
2023/07/25 14:18:11;;;;;;;1999.90;999.90;;;;;;;;;;4957709;28;20541;-73
2023/07/25 14:20:59;;;;;;;1999.90;999.90;;;;;;;;;;4954468;28;20260;-75
2023/07/25 14:23:44;;;;;;;1999.90;999.90;;;;;;;;;;4958641;28;20212;-79
2023/07/25 14:26:30;;;;;;;1999.90;999.90;;;;;;;;;;4954051;28;21017;-77
2023/07/25 14:29:15;;;;;;;1999.90;999.90;;;;;;;;;;4944454;28;20215;-77
2023/07/25 14:32:01;;;;;;;1999.90;999.90;;;;;;;;;;4954691;28;21022;-76
2023/07/25 14:34:46;;;;;;;1999.90;999.90;;;;;;;;;;4954312;28;20219;-77
2023/07/25 14:37:31;;;;;;;1999.90;999.90;;;;;;;;;;4951498;28;20247;-76
2023/07/25 14:40:16;;;;;;;1999.90;999.90;;;;;;;;;;4954775;28;20717;-77
2023/07/25 14:43:01;;;;;;;1999.90;999.90;;;;;;;;;;4955323;28;20208;-77
2023/07/25 14:45:47;;;;;;;1999.90;999.90;;;;;;;;;;4948216;28;20737;-76
2023/07/25 14:48:33;;;;;;;1999.90;999.90;;;;;;;;;;4955454;28;20214;-77
2023/07/25 14:51:18;;;;;;;1999.90;999.90;;;;;;;;;;4960672;28;20311;-77
2023/07/25 14:54:04;;;;;;;1999.90;999.90;;;;;;;;;;4958409;28;20463;-78
2023/07/25 14:56:49;;;;;;;1999.90;999.90;;;;;;;;;;4952898;28;20532;-76
2023/07/25 14:59:34;;;;;;;1999.90;999.90;;;;;;;;;;4955717;28;20576;-76
2023/07/25 15:02:19;;;;;;;1999.90;999.90;;;;;;;;;;4961170;28;20284;-78
2023/07/25 15:05:05;;;;;;;1999.90;999.90;;;;;;;;;;4958984;28;20313;-78
2023/07/25 15:07:52;;;;;;;1999.90;999.90;;;;;;;;;;4956458;28;20314;-77
2023/07/25 15:10:37;;;;;;;1999.90;999.90;;;;;;;;;;4953797;28;20226;-78
2023/07/25 15:13:22;;;;;;;1999.90;999.90;;;;;;;;;;4955634;28;20306;-77
2023/07/25 15:16:07;;;;;;;1999.90;999.90;;;;;;;;;;4959156;28;20481;-78
2023/07/25 15:18:53;;;;;;;1999.90;999.90;;;;;;;;;;4955668;28;20226;-78
2023/07/25 15:21:39;;;;;;;1999.90;999.90;;;;;;;;;;4965543;28;20718;-76
2023/07/25 15:24:24;;;;;;;1999.90;999.90;;;;;;;;;;4960049;28;20338;-78
2023/07/25 15:27:09;;;;;;;1999.90;999.90;;;;;;;;;;4958696;28;20221;-77
2023/07/25 15:29:54;;;;;;;1999.90;999.90;;;;;;;;;;4956114;28;20223;-78
2023/07/25 15:32:39;;;;;;;1999.90;999.90;;;;;;;;;;4959844;28;20220;-76
2023/07/25 15:35:25;;;;;;;1999.90;999.90;;;;;;;;;;4953338;28;20220;-77
2023/07/25 15:38:13;;;;;;;1999.90;999.90;;;;;;;;;;4951987;28;20579;-79
2023/07/25 15:40:57;;;;;;;1999.90;999.90;;;;;;;;;;4954014;28;20243;-77
2023/07/25 15:43:43;;;;;;;1999.90;999.90;;;;;;;;;;4958810;28;20224;-78
2023/07/25 15:46:28;;;;;;;1999.90;999.90;;;;;;;;;;4955280;28;20219;-77
2023/07/25 15:49:13;;;;;;;1999.90;999.90;;;;;;;;;;4959194;28;20999;-76
2023/07/25 15:51:59;;;;;;;1999.90;999.90;;;;;;;;;;4962936;28;20333;-77
2023/07/25 15:54:45;;;;;;;1999.90;999.90;;;;;;;;;;4961059;28;20232;-77
2023/07/25 15:57:30;;;;;;;1999.90;999.90;;;;;;;;;;4964400;28;20230;-78
2023/07/25 16:00:15;;;;;;;1999.90;999.90;;;;;;;;;;4971109;28;20225;-79
2023/07/25 16:03:00;;;;;;;1999.90;999.90;;;;;;;;;;4959777;28;20287;-78
2023/07/25 16:05:45;;;;;;;1999.90;999.90;;;;;;;;;;4965481;28;20212;-78
2023/07/25 16:08:31;;;;;;;1999.90;999.90;;;;;;;;;;4958131;28;20215;-77
2023/07/25 16:11:17;;;;;;;1999.90;999.90;;;;;;;;;;4962412;28;20358;-77
2023/07/25 16:14:02;;;;;;;1999.90;999.90;;;;;;;;;;4969331;28;20798;-78
2023/07/25 16:16:47;;;;;;;1999.90;999.90;;;;;;;;;;4962645;28;20290;-75
2023/07/25 16:19:32;;;;;;;1999.90;999.90;;;;;;;;;;4966368;28;20211;-74
2023/07/25 16:22:17;;;;;;;1999.90;999.90;;;;;;;;;;4964086;28;20352;-74
2023/07/25 16:25:03;;;;;;;1999.90;999.90;;;;;;;;;;4964265;28;20239;-76
2023/07/25 16:27:51;;;;;;;1999.90;999.90;;;;;;;;;;4964390;28;20628;-77
2023/07/25 16:30:37;;;;;;;1999.90;999.90;;;;;;;;;;4956526;28;20215;-75
2023/07/25 16:33:22;;;;;;;1999.90;999.90;;;;;;;;;;4958776;28;20235;-78
2023/07/25 16:36:07;;;;;;;1999.90;999.90;;;;;;;;;;4968877;28;20281;-75
2023/07/25 16:38:52;;;;;;;1999.90;999.90;;;;;;;;;;4964651;28;20211;-75
2023/07/25 16:41:38;;;;;;;1999.90;999.90;;;;;;;;;;4966462;28;20233;-76
2023/07/25 16:44:24;;;;;;;1999.90;999.90;;;;;;;;;;4958922;28;20215;-76
2023/07/25 16:47:09;;;;;;;1999.90;999.90;;;;;;;;;;4971484;28;20234;-75
2023/07/25 16:49:54;;;;;;;1999.90;999.90;;;;;;;;;;4955490;28;20431;-74
2023/07/25 16:52:39;;;;;;;1999.90;999.90;;;;;;;;;;4959479;28;20222;-76
2023/07/25 16:55:24;;;;;;;1999.90;999.90;;;;;;;;;;4967504;28;20690;-77
2023/07/25 16:58:09;;;;;;;1999.90;999.90;;;;;;;;;;4965998;28;20339;-76
2023/07/25 17:00:56;;;;;;;1999.90;999.90;;;;;;;;;;4965605;28;20245;-75
2023/07/25 17:03:41;;;;;;;1999.90;999.90;;;;;;;;;;4961253;28;20209;-75
2023/07/25 17:06:26;;;;;;;1999.90;999.90;;;;;;;;;;4954217;28;20258;-75
2023/07/25 17:09:10;;;;;;;1999.90;999.90;;;;;;;;;;4959427;28;20208;-75
2023/07/25 17:11:55;;;;;;;1999.90;999.90;;;;;;;;;;4964764;28;20972;-75
2023/07/25 17:14:41;;;;;;;1999.90;999.90;;;;;;;;;;4969190;28;20207;-77
2023/07/25 17:17:27;;;;;;;1999.90;999.90;;;;;;;;;;4963923;28;20230;-76
2023/07/25 17:20:14;;;;;;;1999.90;999.90;;;;;;;;;;4957174;28;20210;-75
2023/07/25 17:22:59;;;;;;;1999.90;999.90;;;;;;;;;;4959005;28;20209;-76
2023/07/25 17:25:44;;;;;;;1999.90;999.90;;;;;;;;;;4958765;28;20228;-74
2023/07/25 17:28:29;;;;;;;1999.90;999.90;;;;;;;;;;4955371;28;20701;-76
2023/07/25 17:31:14;;;;;;;1999.90;999.90;;;;;;;;;;4954211;28;20304;-77
2023/07/25 17:34:00;;;;;;;1999.90;999.90;;;;;;;;;;4958606;28;20314;-76
2023/07/25 17:36:46;;;;;;;1999.90;999.90;;;;;;;;;;4957057;28;20251;-75
2023/07/25 17:39:31;;;;;;;1999.90;999.90;;;;;;;;;;4970026;28;20216;-75
2023/07/25 17:42:16;;;;;;;1999.90;999.90;;;;;;;;;;4952674;28;20232;-76
2023/07/25 17:45:02;;;;;;;1999.90;999.90;;;;;;;;;;4969512;28;20208;-77
2023/07/25 17:47:47;;;;;;;1999.90;999.90;;;;;;;;;;4962651;28;20411;-76
2023/07/25 17:50:33;;;;;;;1999.90;999.90;;;;;;;;;;4970834;28;20208;-75
2023/07/25 17:53:19;;;;;;;1999.90;999.90;;;;;;;;;;4963738;28;20270;-76
2023/07/25 17:56:05;;;;;;;1999.90;999.90;;;;;;;;;;4964324;28;20204;-76
2023/07/25 17:58:50;;;;;;;1999.90;999.90;;;;;;;;;;4967730;28;20204;-75
2023/07/25 18:01:35;;;;;;;1999.90;999.90;;;;;;;;;;4964689;28;20244;-75
2023/07/25 18:04:20;;;;;;;1999.90;999.90;;;;;;;;;;4954014;28;20565;-75
2023/07/25 18:07:05;;;;;;;1999.90;999.90;;;;;;;;;;4953664;28;20726;-73
2023/07/25 18:09:52;;;;;;;1999.90;999.90;;;;;;;;;;4959974;28;20407;-75
2023/07/25 18:12:37;;;;;;;1999.90;999.90;;;;;;;;;;4964451;28;20232;-78
2023/07/25 18:15:22;;;;;;;1999.90;999.90;;;;;;;;;;4970926;28;20204;-74
2023/07/25 18:18:07;;;;;;;1999.90;999.90;;;;;;;;;;4961061;28;20221;-76
2023/07/25 18:20:52;;;;;;;1999.90;999.90;;;;;;;;;;4963944;28;20241;-79
2023/07/25 18:23:37;;;;;;;1999.90;999.90;;;;;;;;;;4962520;28;20313;-77
2023/07/25 18:26:23;;;;;;;1999.90;999.90;;;;;;;;;;4963446;28;20220;-77
2023/07/25 18:29:08;;;;;;;1999.90;999.90;;;;;;;;;;4961293;28;20221;-75
2023/07/25 18:31:53;;;;;;;1999.90;999.90;;;;;;;;;;4959285;28;20362;-75
2023/07/25 18:34:38;;;;;;;1999.90;999.90;;;;;;;;;;4953525;28;20230;-75
2023/07/25 18:37:23;;;;;;;1999.90;999.90;;;;;;;;;;4961505;28;20279;-75
2023/07/25 18:40:09;;;;;;;1999.90;999.90;;;;;;;;;;4954728;28;20216;-74
2023/07/25 18:42:55;;;;;;;1999.90;999.90;;;;;;;;;;4957948;28;20334;-75
2023/07/25 18:45:40;;;;;;;1999.90;999.90;;;;;;;;;;4956283;28;20416;-76
2023/07/25 18:48:25;;;;;;;1999.90;999.90;;;;;;;;;;4961989;28;20715;-76
2023/07/25 18:51:10;;;;;;;1999.90;999.90;;;;;;;;;;4957838;28;20232;-75
2023/07/25 18:53:55;;;;;;;1999.90;999.90;;;;;;;;;;4951710;28;20228;-75
2023/07/25 18:56:40;;;;;;;1999.90;999.90;;;;;;;;;;4960164;28;20736;-75
2023/07/25 18:59:26;;;;;;;1999.90;999.90;;;;;;;;;;4965914;28;20228;-76
2023/07/25 19:02:11;;;;;;;1999.90;999.90;;;;;;;;;;4958492;28;20800;-76
2023/07/25 19:04:56;;;;;;;1999.90;999.90;;;;;;;;;;4956979;28;20216;-76
2023/07/25 19:07:41;;;;;;;1999.90;999.90;;;;;;;;;;4960008;28;20287;-76
2023/07/25 19:10:26;;;;;;;1999.90;999.90;;;;;;;;;;4961685;28;20207;-76
2023/07/25 19:13:11;;;;;;;1999.90;999.90;;;;;;;;;;4961914;28;20263;-76
2023/07/25 19:15:58;;;;;;;1999.90;999.90;;;;;;;;;;4961343;28;20644;-74
2023/07/25 19:18:43;;;;;;;1999.90;999.90;;;;;;;;;;4962743;28;20218;-75
2023/07/25 19:21:28;;;;;;;1999.90;999.90;;;;;;;;;;4968767;28;20226;-75
2023/07/25 19:24:13;;;;;;;1999.90;999.90;;;;;;;;;;4957967;28;20575;-76